Time;durP1;ratioP1;P1;durP2;ratioP2;P2;SDS_P1;SDS_P2;PMS_P1;PMS_P2;Temp;Humidity;BMP_temperature;BMP_pressure;BME280_temperature;BME280_humidity;BME280_pressure;Samples;Min_cycle;Max_cycle;Signal;HPM_P1;HPM_P2
2023/07/10 00:01:44;;;;;;;4.40;2.20;;;;;;;;;;5012953;28;20034;-65
2023/07/10 00:04:19;;;;;;;9.32;2.30;;;;;;;;;;5013161;28;20529;-65
2023/07/10 00:06:46;;;;;;;3.47;2.10;;;;;;;;;;5012637;28;20065;-65
2023/07/10 00:09:12;;;;;;;10.20;2.20;;;;;;;;;;5013089;28;20033;-65
2023/07/10 00:11:38;;;;;;;5.38;1.95;;;;;;;;;;5013038;28;20022;-66
2023/07/10 00:14:06;;;;;;;5.53;2.10;;;;;;;;;;5013000;28;20515;-65
2023/07/10 00:16:32;;;;;;;4.13;1.98;;;;;;;;;;5012885;28;20448;-65
2023/07/10 00:18:58;;;;;;;4.57;2.63;;;;;;;;;;5012889;28;20513;-65
2023/07/10 00:21:23;;;;;;;4.07;1.98;;;;;;;;;;5012819;28;20033;-66
2023/07/10 00:23:49;;;;;;;3.55;2.38;;;;;;;;;;5013197;28;20034;-65
2023/07/10 00:26:24;;;;;;;4.07;2.13;;;;;;;;;;5012815;28;20033;-66
2023/07/10 00:28:53;;;;;;;4.50;2.10;;;;;;;;;;5012667;28;20465;-66
2023/07/10 00:31:19;;;;;;;6.32;2.30;;;;;;;;;;5012957;28;20105;-65
2023/07/10 00:33:48;;;;;;;4.15;2.08;;;;;;;;;;5012699;28;20022;-65
2023/07/10 00:36:37;;;;;;;3.83;2.13;;;;;;;;;;5012546;28;20041;-65
2023/07/10 00:39:30;;;;;;;3.53;2.00;;;;;;;;;;5012910;28;20029;-65
2023/07/10 00:42:12;;;;;;;3.90;2.22;;;;;;;;;;5009751;28;20045;-65
2023/07/10 00:44:49;;;;;;;3.38;2.20;;;;;;;;;;5012610;28;20049;-65
2023/07/10 00:47:21;;;;;;;3.90;2.40;;;;;;;;;;5012444;28;20087;-65
2023/07/10 00:49:50;;;;;;;5.78;2.20;;;;;;;;;;5012667;28;20030;-66
2023/07/10 00:52:21;;;;;;;5.05;2.17;;;;;;;;;;5012494;28;20508;-65
2023/07/10 00:54:50;;;;;;;4.10;2.47;;;;;;;;;;5012260;28;20053;-65
2023/07/10 00:57:21;;;;;;;4.00;2.20;;;;;;;;;;5012532;28;20360;-66
2023/07/10 00:59:48;;;;;;;3.85;2.20;;;;;;;;;;5012304;28;20030;-65
2023/07/10 01:02:14;;;;;;;3.17;2.13;;;;;;;;;;5011989;28;20029;-65
2023/07/10 01:04:42;;;;;;;3.45;2.10;;;;;;;;;;5011994;28;20018;-66
2023/07/10 01:07:12;;;;;;;3.55;2.20;;;;;;;;;;5012119;28;20380;-65
2023/07/10 01:09:40;;;;;;;4.82;2.63;;;;;;;;;;5012096;28;20052;-65
2023/07/10 01:12:06;;;;;;;4.65;2.17;;;;;;;;;;5012213;28;20034;-64
2023/07/10 01:14:34;;;;;;;7.57;2.55;;;;;;;;;;5011931;28;20411;-65
2023/07/10 01:17:05;;;;;;;4.97;2.28;;;;;;;;;;5011848;28;20387;-65
2023/07/10 01:19:32;;;;;;;5.38;2.60;;;;;;;;;;5011696;28;20510;-65
2023/07/10 01:21:58;;;;;;;4.85;2.53;;;;;;;;;;5011756;28;20041;-65
2023/07/10 01:24:24;;;;;;;7.15;2.33;;;;;;;;;;5011811;28;20026;-66
2023/07/10 01:26:50;;;;;;;3.78;2.47;;;;;;;;;;5011796;28;20038;-65
2023/07/10 01:29:35;;;;;;;7.07;2.30;;;;;;;;;;5011724;28;20041;-65
2023/07/10 01:32:02;;;;;;;4.68;2.25;;;;;;;;;;5011899;28;20018;-65
2023/07/10 01:34:38;;;;;;;6.90;2.60;;;;;;;;;;5011283;28;20030;-65
2023/07/10 01:37:05;;;;;;;3.60;2.28;;;;;;;;;;5011562;28;20168;-65
2023/07/10 01:39:41;;;;;;;4.72;2.40;;;;;;;;;;5010951;28;20432;-65
2023/07/10 01:42:07;;;;;;;9.63;3.15;;;;;;;;;;5007091;28;20026;-65
2023/07/10 01:44:38;;;;;;;3.40;2.47;;;;;;;;;;5011253;28;20499;-65
2023/07/10 01:47:07;;;;;;;8.57;2.60;;;;;;;;;;5011380;28;20132;-65
2023/07/10 01:49:35;;;;;;;8.38;2.15;;;;;;;;;;5011200;28;20395;-65
2023/07/10 01:52:03;;;;;;;5.28;2.47;;;;;;;;;;5011417;28;20061;-65
2023/07/10 01:54:28;;;;;;;3.55;2.53;;;;;;;;;;5011267;28;20080;-66
2023/07/10 01:56:54;;;;;;;3.95;2.38;;;;;;;;;;5011147;28;20459;-66
2023/07/10 01:59:19;;;;;;;3.53;2.50;;;;;;;;;;5011247;28;20097;-65
2023/07/10 02:01:46;;;;;;;4.88;2.78;;;;;;;;;;5010978;28;20112;-65
2023/07/10 02:04:11;;;;;;;7.70;2.63;;;;;;;;;;5010949;28;20284;-65
2023/07/10 02:06:37;;;;;;;4.20;2.30;;;;;;;;;;5010718;28;20548;-65
2023/07/10 02:09:04;;;;;;;6.53;2.97;;;;;;;;;;5011065;28;20053;-65
2023/07/10 02:11:29;;;;;;;4.03;2.35;;;;;;;;;;5011106;28;20030;-65
2023/07/10 02:13:55;;;;;;;5.05;2.40;;;;;;;;;;5010906;28;20056;-64
2023/07/10 02:16:20;;;;;;;7.13;2.60;;;;;;;;;;5010919;28;20030;-66
2023/07/10 02:18:46;;;;;;;5.40;2.50;;;;;;;;;;5010501;28;20022;-66
2023/07/10 02:21:11;;;;;;;6.20;2.40;;;;;;;;;;5010931;28;20054;-66
2023/07/10 02:23:38;;;;;;;5.75;2.25;;;;;;;;;;5010809;28;20024;-66
2023/07/10 02:26:04;;;;;;;5.07;2.58;;;;;;;;;;5010850;28;20137;-67
2023/07/10 02:28:29;;;;;;;4.93;2.58;;;;;;;;;;5010565;28;20065;-66
2023/07/10 02:30:55;;;;;;;4.82;2.40;;;;;;;;;;5010826;28;20022;-67
2023/07/10 02:33:21;;;;;;;6.00;2.60;;;;;;;;;;5010529;28;20479;-67
2023/07/10 02:35:47;;;;;;;4.93;2.38;;;;;;;;;;5010717;28;20025;-67
2023/07/10 02:38:13;;;;;;;7.22;2.55;;;;;;;;;;5010769;28;20034;-66
2023/07/10 02:40:38;;;;;;;7.47;3.00;;;;;;;;;;5010448;28;20033;-67
2023/07/10 02:43:03;;;;;;;4.65;2.70;;;;;;;;;;5010574;28;20053;-67
2023/07/10 02:45:29;;;;;;;7.32;2.92;;;;;;;;;;5010593;28;20026;-67
2023/07/10 02:47:55;;;;;;;4.53;2.70;;;;;;;;;;5010437;28;20106;-67
2023/07/10 02:50:20;;;;;;;3.90;2.53;;;;;;;;;;5010730;28;20030;-65
2023/07/10 02:52:45;;;;;;;4.93;2.70;;;;;;;;;;5014294;28;20041;-69
2023/07/10 02:55:11;;;;;;;5.70;2.60;;;;;;;;;;5014984;28;20160;-67
2023/07/10 02:57:36;;;;;;;9.95;3.05;;;;;;;;;;5014690;28;20033;-67
2023/07/10 03:00:04;;;;;;;9.63;2.72;;;;;;;;;;5014775;28;20064;-66
2023/07/10 03:02:30;;;;;;;5.10;2.60;;;;;;;;;;5014153;28;20088;-66
2023/07/10 03:04:55;;;;;;;9.48;6.15;;;;;;;;;;5014524;28;20055;-66
2023/07/10 03:07:21;;;;;;;7.43;3.50;;;;;;;;;;5014317;28;20030;-65
2023/07/10 03:09:46;;;;;;;6.63;3.25;;;;;;;;;;5014199;28;20360;-66
2023/07/10 03:12:11;;;;;;;6.65;2.85;;;;;;;;;;5014443;28;20084;-66
2023/07/10 03:14:37;;;;;;;6.35;3.03;;;;;;;;;;5014375;28;20026;-66
2023/07/10 03:17:04;;;;;;;6.30;2.92;;;;;;;;;;5014071;28;20026;-67
2023/07/10 03:19:32;;;;;;;9.05;2.90;;;;;;;;;;5014051;28;20370;-66
2023/07/10 03:21:58;;;;;;;5.40;2.88;;;;;;;;;;5014480;28;20506;-66
2023/07/10 03:24:24;;;;;;;10.35;2.97;;;;;;;;;;5014157;28;20034;-67
2023/07/10 03:26:49;;;;;;;3.95;2.70;;;;;;;;;;5013537;28;20030;-66
2023/07/10 03:29:15;;;;;;;4.80;2.75;;;;;;;;;;5013894;28;20041;-65
2023/07/10 03:31:41;;;;;;;7.07;2.90;;;;;;;;;;5013833;28;20382;-66
2023/07/10 03:34:07;;;;;;;4.68;2.65;;;;;;;;;;5013885;28;20022;-68
2023/07/10 03:36:34;;;;;;;5.13;2.83;;;;;;;;;;5013690;28;20025;-66
2023/07/10 03:38:59;;;;;;;12.88;3.90;;;;;;;;;;5013530;28;20029;-66
2023/07/10 03:41:26;;;;;;;6.97;3.40;;;;;;;;;;5013732;28;20034;-66
2023/07/10 03:43:51;;;;;;;7.88;3.38;;;;;;;;;;5013516;28;20100;-66
2023/07/10 03:46:17;;;;;;;9.48;3.10;;;;;;;;;;5013407;28;20018;-66
2023/07/10 03:48:43;;;;;;;4.32;2.67;;;;;;;;;;5013700;28;20064;-66
2023/07/10 03:51:09;;;;;;;7.20;2.83;;;;;;;;;;5013823;28;20016;-66
2023/07/10 03:53:35;;;;;;;9.55;3.08;;;;;;;;;;5013627;28;20514;-66
2023/07/10 03:56:00;;;;;;;6.55;2.88;;;;;;;;;;5013472;28;20026;-66
2023/07/10 03:58:28;;;;;;;9.48;3.33;;;;;;;;;;5013323;28;20479;-65
2023/07/10 04:00:55;;;;;;;4.63;2.83;;;;;;;;;;5012975;28;20056;-67
2023/07/10 04:03:24;;;;;;;6.35;3.15;;;;;;;;;;5012659;28;20096;-68
2023/07/10 04:05:52;;;;;;;4.45;3.00;;;;;;;;;;5013082;28;20034;-68
2023/07/10 04:08:21;;;;;;;6.45;3.20;;;;;;;;;;5013315;28;20026;-66
2023/07/10 04:10:54;;;;;;;4.78;2.72;;;;;;;;;;5012851;28;20332;-66
2023/07/10 04:13:20;;;;;;;4.35;2.70;;;;;;;;;;5013055;28;20029;-66
2023/07/10 04:15:54;;;;;;;9.70;2.83;;;;;;;;;;5013231;28;20026;-65
2023/07/10 04:18:20;;;;;;;5.38;2.72;;;;;;;;;;5013370;28;20371;-66
2023/07/10 04:20:45;;;;;;;5.70;2.83;;;;;;;;;;5012955;28;20037;-66
2023/07/10 04:23:11;;;;;;;5.00;2.83;;;;;;;;;;5013058;28;20026;-67
2023/07/10 04:25:37;;;;;;;6.20;2.70;;;;;;;;;;5012842;28;20018;-66
2023/07/10 04:28:03;;;;;;;5.47;2.95;;;;;;;;;;5012598;28;20034;-66
2023/07/10 04:30:31;;;;;;;6.03;2.97;;;;;;;;;;5012851;28;20517;-65
2023/07/10 04:32:57;;;;;;;12.70;3.33;;;;;;;;;;5012688;28;20030;-66
2023/07/10 04:35:22;;;;;;;3.80;2.78;;;;;;;;;;5013012;28;20108;-65
2023/07/10 04:37:48;;;;;;;7.95;3.72;;;;;;;;;;5012672;28;20026;-65
2023/07/10 04:40:15;;;;;;;4.30;2.72;;;;;;;;;;5012518;28;20049;-65
2023/07/10 04:42:41;;;;;;;5.50;2.97;;;;;;;;;;5012192;28;20033;-66
2023/07/10 04:45:07;;;;;;;5.72;2.72;;;;;;;;;;5012437;28;20426;-65
2023/07/10 04:47:32;;;;;;;5.32;2.70;;;;;;;;;;5012557;28;20022;-65
2023/07/10 04:49:57;;;;;;;5.28;2.70;;;;;;;;;;5012252;28;20080;-65
2023/07/10 04:52:23;;;;;;;5.03;2.85;;;;;;;;;;5012397;28;20380;-65
2023/07/10 04:54:50;;;;;;;4.93;2.88;;;;;;;;;;5012179;28;20026;-65
2023/07/10 04:57:17;;;;;;;4.35;2.83;;;;;;;;;;5011966;28;20053;-66
2023/07/10 04:59:43;;;;;;;5.28;2.88;;;;;;;;;;5012262;28;20033;-65
2023/07/10 05:02:08;;;;;;;13.20;3.38;;;;;;;;;;5012247;28;20387;-65
2023/07/10 05:04:33;;;;;;;8.23;3.45;;;;;;;;;;5012144;28;20026;-66
2023/07/10 05:07:02;;;;;;;4.38;2.90;;;;;;;;;;5012020;28;20030;-66
2023/07/10 05:09:29;;;;;;;5.70;3.10;;;;;;;;;;5012256;28;20137;-67
2023/07/10 05:11:54;;;;;;;5.40;3.13;;;;;;;;;;5011993;28;20033;-65
2023/07/10 05:14:20;;;;;;;5.07;2.95;;;;;;;;;;4993698;28;20029;-66
2023/07/10 05:16:45;;;;;;;5.13;3.15;;;;;;;;;;5011658;28;20049;-66
2023/07/10 05:19:11;;;;;;;6.05;3.38;;;;;;;;;;5011916;28;20030;-65
2023/07/10 05:21:36;;;;;;;6.05;3.08;;;;;;;;;;5011860;28;20026;-65
2023/07/10 05:24:01;;;;;;;8.77;3.55;;;;;;;;;;5011702;28;20037;-65
2023/07/10 05:26:27;;;;;;;8.10;3.50;;;;;;;;;;5011700;28;20132;-65
2023/07/10 05:28:52;;;;;;;6.78;3.45;;;;;;;;;;5011713;28;20037;-66
2023/07/10 05:31:18;;;;;;;6.80;3.75;;;;;;;;;;5011858;28;20025;-66
2023/07/10 05:33:45;;;;;;;7.75;3.97;;;;;;;;;;5011697;28;20471;-66
2023/07/10 05:36:13;;;;;;;6.07;3.88;;;;;;;;;;5011700;28;20382;-66
2023/07/10 05:38:39;;;;;;;6.68;3.50;;;;;;;;;;5011469;28;20121;-65
2023/07/10 05:41:05;;;;;;;8.77;3.72;;;;;;;;;;5011251;28;20573;-66
2023/07/10 05:43:32;;;;;;;7.40;3.80;;;;;;;;;;5001669;28;20047;-66
2023/07/10 05:45:58;;;;;;;6.75;3.83;;;;;;;;;;4996031;28;20386;-66
2023/07/10 05:48:24;;;;;;;6.25;4.18;;;;;;;;;;5011373;28;20026;-66
2023/07/10 05:50:50;;;;;;;8.93;3.95;;;;;;;;;;5011813;28;20088;-70
2023/07/10 05:53:16;;;;;;;6.82;3.70;;;;;;;;;;5011321;28;20041;-70
2023/07/10 05:55:46;;;;;;;8.35;3.97;;;;;;;;;;5011183;28;20053;-70
2023/07/10 05:58:14;;;;;;;5.60;3.67;;;;;;;;;;5011231;28;20045;-70
2023/07/10 06:00:41;;;;;;;5.68;3.60;;;;;;;;;;5010969;28;20068;-70
2023/07/10 06:03:06;;;;;;;7.80;4.07;;;;;;;;;;5011289;28;20014;-71
2023/07/10 06:05:32;;;;;;;8.73;4.07;;;;;;;;;;5011157;28;20028;-71
2023/07/10 06:07:57;;;;;;;10.80;3.75;;;;;;;;;;5011007;28;20501;-70
2023/07/10 06:10:23;;;;;;;12.23;3.97;;;;;;;;;;5010779;28;20112;-70
2023/07/10 06:12:48;;;;;;;13.38;4.70;;;;;;;;;;5010868;28;20021;-68
2023/07/10 06:15:14;;;;;;;8.30;3.95;;;;;;;;;;5010933;28;20026;-67
2023/07/10 06:17:39;;;;;;;11.82;4.20;;;;;;;;;;5010957;28;20025;-70
2023/07/10 06:20:05;;;;;;;13.23;4.30;;;;;;;;;;5010954;28;20018;-69
2023/07/10 06:22:31;;;;;;;8.43;3.97;;;;;;;;;;5010826;28;20483;-68
2023/07/10 06:24:56;;;;;;;9.15;3.70;;;;;;;;;;5010688;28;20030;-68
2023/07/10 06:27:22;;;;;;;8.13;4.07;;;;;;;;;;5010002;28;20029;-68
2023/07/10 06:29:47;;;;;;;11.73;3.97;;;;;;;;;;5011009;28;20491;-69
2023/07/10 06:32:13;;;;;;;16.30;4.22;;;;;;;;;;5003391;28;20022;-70
2023/07/10 06:34:38;;;;;;;8.20;4.65;;;;;;;;;;5009623;28;20034;-67
2023/07/10 06:37:04;;;;;;;11.80;4.68;;;;;;;;;;5010060;28;20024;-70
2023/07/10 06:39:29;;;;;;;11.65;4.65;;;;;;;;;;5009635;28;20022;-68
2023/07/10 06:41:55;;;;;;;14.82;4.40;;;;;;;;;;5008365;28;20081;-70
2023/07/10 06:44:20;;;;;;;13.63;4.50;;;;;;;;;;5007554;28;20066;-67
2023/07/10 06:46:46;;;;;;;13.65;4.45;;;;;;;;;;5010094;28;20430;-69
2023/07/10 06:49:11;;;;;;;22.73;4.80;;;;;;;;;;5009992;28;20121;-70
2023/07/10 06:51:37;;;;;;;19.52;10.10;;;;;;;;;;5010365;28;20113;-67
2023/07/10 06:54:03;;;;;;;14.30;4.30;;;;;;;;;;5012570;28;20111;-68
2023/07/10 06:56:30;;;;;;;13.90;4.75;;;;;;;;;;5012295;28;20092;-70
2023/07/10 06:58:55;;;;;;;17.92;4.88;;;;;;;;;;5012315;28;20030;-66
2023/07/10 07:01:21;;;;;;;16.92;4.47;;;;;;;;;;5003236;28;20164;-66
2023/07/10 07:03:46;;;;;;;14.35;5.70;;;;;;;;;;4994873;28;20037;-66
2023/07/10 07:06:12;;;;;;;14.35;6.07;;;;;;;;;;5012025;28;20448;-70
2023/07/10 07:08:37;;;;;;;15.82;5.10;;;;;;;;;;5011994;28;20348;-66
2023/07/10 07:11:02;;;;;;;15.23;4.72;;;;;;;;;;5012353;28;20387;-68
2023/07/10 07:13:28;;;;;;;13.52;4.97;;;;;;;;;;5012608;28;20499;-70
2023/07/10 07:15:55;;;;;;;13.25;5.35;;;;;;;;;;5012386;28;20372;-67
2023/07/10 07:18:22;;;;;;;13.85;5.32;;;;;;;;;;5012335;28;20033;-70
2023/07/10 07:20:48;;;;;;;8.43;4.45;;;;;;;;;;5011984;28;20034;-70
2023/07/10 07:23:14;;;;;;;14.77;4.20;;;;;;;;;;4994632;28;20493;-70
2023/07/10 07:25:43;;;;;;;8.75;3.88;;;;;;;;;;5012215;28;20030;-70
2023/07/10 07:28:09;;;;;;;17.23;3.97;;;;;;;;;;5012235;28;20033;-68
2023/07/10 07:30:34;;;;;;;12.10;3.70;;;;;;;;;;5021645;28;20028;-67
2023/07/10 07:33:00;;;;;;;11.38;3.72;;;;;;;;;;5022027;28;20395;-67
2023/07/10 07:35:26;;;;;;;8.63;3.90;;;;;;;;;;5021612;28;20088;-67
2023/07/10 07:37:52;;;;;;;8.80;4.30;;;;;;;;;;5020904;28;20029;-69
2023/07/10 07:40:17;;;;;;;5.95;3.60;;;;;;;;;;5023301;28;20030;-70
2023/07/10 07:42:46;;;;;;;9.10;4.30;;;;;;;;;;5015358;28;20080;-70
2023/07/10 07:45:13;;;;;;;9.80;4.35;;;;;;;;;;5015687;28;20026;-67
2023/07/10 07:47:40;;;;;;;5.25;3.55;;;;;;;;;;5015596;28;20105;-70
2023/07/10 07:50:09;;;;;;;9.82;4.70;;;;;;;;;;5015901;28;20152;-70
2023/07/10 07:52:35;;;;;;;6.73;4.33;;;;;;;;;;5015250;28;20029;-69
2023/07/10 07:55:00;;;;;;;8.65;3.83;;;;;;;;;;5015504;28;20046;-68
2023/07/10 07:57:25;;;;;;;7.75;4.15;;;;;;;;;;5016083;28;20030;-65
2023/07/10 07:59:52;;;;;;;9.38;4.07;;;;;;;;;;5023975;28;20100;-68
2023/07/10 08:02:17;;;;;;;6.93;4.13;;;;;;;;;;5019800;28;20049;-66
2023/07/10 08:04:43;;;;;;;5.95;3.97;;;;;;;;;;5015125;28;20034;-67
2023/07/10 08:07:09;;;;;;;8.98;4.20;;;;;;;;;;5014862;28;20121;-67
2023/07/10 08:09:34;;;;;;;8.48;4.63;;;;;;;;;;5017482;28;20437;-67
2023/07/10 08:12:00;;;;;;;9.85;4.25;;;;;;;;;;5035174;28;20021;-69
2023/07/10 08:14:26;;;;;;;9.48;4.38;;;;;;;;;;5034939;28;20040;-69
2023/07/10 08:16:52;;;;;;;6.57;4.22;;;;;;;;;;5034873;28;20427;-68
2023/07/10 08:19:18;;;;;;;13.90;4.72;;;;;;;;;;5035056;28;20386;-70
2023/07/10 08:21:43;;;;;;;7.15;4.40;;;;;;;;;;5017106;28;20025;-70
2023/07/10 08:24:08;;;;;;;9.93;4.70;;;;;;;;;;4997505;28;20353;-70
2023/07/10 08:26:34;;;;;;;10.27;4.80;;;;;;;;;;5014798;28;20041;-71
2023/07/10 08:29:25;;;;;;;15.88;4.93;;;;;;;;;;5014812;28;20033;-70
2023/07/10 08:31:55;;;;;;;11.32;4.55;;;;;;;;;;5014861;28;20037;-68
2023/07/10 08:34:21;;;;;;;9.55;4.45;;;;;;;;;;5014732;28;20467;-67
2023/07/10 08:36:47;;;;;;;11.88;4.70;;;;;;;;;;5014629;28;20709;-68
2023/07/10 08:39:12;;;;;;;10.48;4.32;;;;;;;;;;5014506;28;20026;-67
2023/07/10 08:41:38;;;;;;;8.93;4.65;;;;;;;;;;5014461;28;20068;-70
2023/07/10 08:44:04;;;;;;;8.07;4.50;;;;;;;;;;5014109;28;20487;-67
2023/07/10 08:46:30;;;;;;;13.52;5.35;;;;;;;;;;5014525;28;20058;-67
2023/07/10 08:49:03;;;;;;;14.48;5.50;;;;;;;;;;5013857;28;20034;-69
2023/07/10 08:51:38;;;;;;;11.27;5.00;;;;;;;;;;5014697;28;20045;-68
2023/07/10 08:54:08;;;;;;;18.83;5.05;;;;;;;;;;5014745;28;20066;-68
2023/07/10 08:56:38;;;;;;;17.47;5.10;;;;;;;;;;5014505;28;20037;-67
2023/07/10 08:59:26;;;;;;;18.80;5.30;;;;;;;;;;5014412;28;20279;-70
2023/07/10 09:01:52;;;;;;;14.38;5.03;;;;;;;;;;5005860;28;20104;-68
2023/07/10 09:04:19;;;;;;;23.70;5.50;;;;;;;;;;5014033;28;20352;-67
2023/07/10 09:06:50;;;;;;;18.25;4.97;;;;;;;;;;5014032;28;20040;-70
2023/07/10 09:09:34;;;;;;;14.52;5.28;;;;;;;;;;5013945;28;20392;-68
2023/07/10 09:12:23;;;;;;;11.73;4.68;;;;;;;;;;5014380;28;20108;-69
2023/07/10 09:14:58;;;;;;;16.60;4.47;;;;;;;;;;5013312;28;20065;-68
2023/07/10 09:17:36;;;;;;;12.25;4.38;;;;;;;;;;4996493;28;20029;-67
2023/07/10 09:20:04;;;;;;;11.93;4.50;;;;;;;;;;5013723;28;20474;-68
2023/07/10 09:22:32;;;;;;;12.68;4.97;;;;;;;;;;5013833;28;20029;-69
2023/07/10 09:24:58;;;;;;;12.63;4.32;;;;;;;;;;5013831;28;20061;-67
2023/07/10 09:27:23;;;;;;;10.25;4.55;;;;;;;;;;5013740;28;20065;-69
2023/07/10 09:29:52;;;;;;;13.57;4.38;;;;;;;;;;5013711;28;20037;-67
2023/07/10 09:32:19;;;;;;;16.10;4.60;;;;;;;;;;5013613;28;20026;-70
2023/07/10 09:34:49;;;;;;;8.50;4.10;;;;;;;;;;5013575;28;20034;-67
2023/07/10 09:37:16;;;;;;;;;;;;;;;;;;5014177;28;20029;-67
2023/07/10 09:39:42;;;;;;;11.88;4.78;;;;;;;;;;5013509;28;19913;-69
2023/07/10 09:42:20;;;;;;;10.40;4.28;;;;;;;;;;5013576;28;20028;-67
2023/07/10 09:44:51;;;;;;;14.48;4.65;;;;;;;;;;5013205;28;20049;-68
2023/07/10 09:47:17;;;;;;;13.32;4.95;;;;;;;;;;5013021;28;20514;-66
2023/07/10 09:49:53;;;;;;;10.27;4.63;;;;;;;;;;5013612;28;20038;-67
2023/07/10 09:52:39;;;;;;;19.02;4.65;;;;;;;;;;5013404;28;20025;-66
2023/07/10 09:55:08;;;;;;;15.50;4.82;;;;;;;;;;5013333;28;20034;-67
2023/07/10 09:57:49;;;;;;;8.77;4.20;;;;;;;;;;5013486;28;20025;-67
2023/07/10 10:00:19;;;;;;;12.27;4.88;;;;;;;;;;5013070;28;20383;-67
2023/07/10 10:02:55;;;;;;;22.63;5.13;;;;;;;;;;5012415;28;20145;-67
2023/07/10 10:05:21;;;;;;;17.17;4.63;;;;;;;;;;5013198;28;20029;-67
2023/07/10 10:07:49;;;;;;;10.05;4.47;;;;;;;;;;5012878;28;20033;-67
2023/07/10 10:10:31;;;;;;;11.93;4.25;;;;;;;;;;5013140;28;20540;-68
2023/07/10 10:13:23;;;;;;;18.75;4.50;;;;;;;;;;5013168;28;20173;-68
2023/07/10 10:15:54;;;;;;;10.77;3.75;;;;;;;;;;5012926;28;20096;-67
2023/07/10 10:18:53;;;;;;;6.95;3.92;;;;;;;;;;5012824;28;20499;-66
2023/07/10 10:21:20;;;;;;;9.15;3.83;;;;;;;;;;5012813;28;20034;-65
2023/07/10 10:23:48;;;;;;;9.60;3.70;;;;;;;;;;5012477;28;20446;-67
2023/07/10 10:26:50;;;;;;;8.20;4.13;;;;;;;;;;5012825;28;20026;-67
2023/07/10 10:29:18;;;;;;;5.95;3.97;;;;;;;;;;5012818;28;20080;-67
2023/07/10 10:32:00;;;;;;;10.98;3.85;;;;;;;;;;5012681;28;20057;-67
2023/07/10 10:34:43;;;;;;;7.55;3.95;;;;;;;;;;5012868;28;20028;-69
2023/07/10 10:37:46;;;;;;;10.32;3.85;;;;;;;;;;5024919;28;20048;-69
2023/07/10 10:40:17;;;;;;;6.20;3.90;;;;;;;;;;5012624;28;20502;-70
2023/07/10 10:43:14;;;;;;;8.25;4.00;;;;;;;;;;5012444;28;20425;-66
2023/07/10 10:46:21;;;;;;;10.40;4.13;;;;;;;;;;5012486;28;20554;-67
2023/07/10 10:48:56;;;;;;;11.13;4.25;;;;;;;;;;5017274;28;20403;-67
2023/07/10 10:51:28;;;;;;;10.35;4.10;;;;;;;;;;5012862;28;20029;-64
2023/07/10 10:54:00;;;;;;;7.82;4.30;;;;;;;;;;5012712;28;20025;-69
2023/07/10 10:56:32;;;;;;;9.23;4.28;;;;;;;;;;5012565;28;20093;-69
2023/07/10 10:59:09;;;;;;;6.68;3.72;;;;;;;;;;5012274;28;20038;-69
2023/07/10 11:01:34;;;;;;;8.43;3.90;;;;;;;;;;5012416;28;20045;-68
2023/07/10 11:04:15;;;;;;;8.23;4.05;;;;;;;;;;4994944;28;20022;-66
2023/07/10 11:06:55;;;;;;;10.63;3.70;;;;;;;;;;5011921;28;20036;-68
2023/07/10 11:09:26;;;;;;;5.78;3.60;;;;;;;;;;5012421;28;20365;-68
2023/07/10 11:11:53;;;;;;;6.20;3.72;;;;;;;;;;5012413;28;20049;-67
2023/07/10 11:14:20;;;;;;;5.45;3.53;;;;;;;;;;5015051;28;20037;-66
2023/07/10 11:16:46;;;;;;;7.03;4.03;;;;;;;;;;5016148;28;20037;-69
2023/07/10 11:19:16;;;;;;;5.60;3.90;;;;;;;;;;5016171;28;20030;-64
2023/07/10 11:21:42;;;;;;;8.38;4.03;;;;;;;;;;5015985;28;20037;-65
2023/07/10 11:24:34;;;;;;;8.32;3.90;;;;;;;;;;5016166;28;20021;-67
2023/07/10 11:27:27;;;;;;;6.75;3.97;;;;;;;;;;5013106;28;20068;-65
2023/07/10 11:29:56;;;;;;;6.82;3.50;;;;;;;;;;5015671;28;20545;-64
2023/07/10 11:32:25;;;;;;;6.50;4.07;;;;;;;;;;5015973;28;20026;-65
2023/07/10 11:35:16;;;;;;;9.10;3.75;;;;;;;;;;5015546;28;20037;-67
2023/07/10 11:37:47;;;;;;;8.63;4.18;;;;;;;;;;5007335;28;20057;-65
2023/07/10 11:40:28;;;;;;;9.40;3.95;;;;;;;;;;5015591;28;20048;-66
2023/07/10 11:43:00;;;;;;;8.15;3.70;;;;;;;;;;5015383;28;20069;-65
2023/07/10 11:45:31;;;;;;;6.45;3.90;;;;;;;;;;4998589;28;20446;-65
2023/07/10 11:47:56;;;;;;;5.68;3.95;;;;;;;;;;5015640;28;20050;-65
2023/07/10 11:50:29;;;;;;;8.80;3.67;;;;;;;;;;5015740;28;20426;-66
2023/07/10 11:53:22;;;;;;;8.70;3.67;;;;;;;;;;5015156;28;20541;-64
2023/07/10 11:56:02;;;;;;;6.60;4.07;;;;;;;;;;5014388;28;20132;-66
2023/07/10 11:58:30;;;;;;;8.55;3.90;;;;;;;;;;5015218;28;20038;-67
2023/07/10 12:01:03;;;;;;;6.07;4.18;;;;;;;;;;5015145;28;20075;-66
2023/07/10 12:03:33;;;;;;;7.35;3.90;;;;;;;;;;5015296;28;20097;-65
2023/07/10 12:05:58;;;;;;;7.07;3.88;;;;;;;;;;5015127;28;20028;-67
2023/07/10 12:08:29;;;;;;;8.10;4.20;;;;;;;;;;5015114;28;20025;-65
2023/07/10 12:10:55;;;;;;;6.38;3.80;;;;;;;;;;5014937;28;20033;-67
2023/07/10 12:13:29;;;;;;;7.05;4.10;;;;;;;;;;5014837;28;20029;-67
2023/07/10 12:15:57;;;;;;;10.07;4.05;;;;;;;;;;5015185;28;20037;-70
2023/07/10 12:18:23;;;;;;;7.90;4.18;;;;;;;;;;5015108;28;20079;-69
2023/07/10 12:20:51;;;;;;;7.57;4.05;;;;;;;;;;5014846;28;20112;-68
2023/07/10 12:23:16;;;;;;;12.65;4.07;;;;;;;;;;5014920;28;20101;-67
2023/07/10 12:25:53;;;;;;;10.68;4.00;;;;;;;;;;5014459;28;20116;-68
2023/07/10 12:28:22;;;;;;;9.57;3.80;;;;;;;;;;5014762;28;20072;-68
2023/07/10 12:30:52;;;;;;;5.90;3.97;;;;;;;;;;5014596;28;20041;-68
2023/07/10 12:33:32;;;;;;;6.57;4.30;;;;;;;;;;5015193;28;20033;-67
2023/07/10 12:36:06;;;;;;;16.15;4.20;;;;;;;;;;5014968;28;20171;-69
2023/07/10 12:38:32;;;;;;;6.43;4.10;;;;;;;;;;5014556;28;20032;-64
2023/07/10 12:40:58;;;;;;;9.15;4.22;;;;;;;;;;5013903;28;20038;-65
2023/07/10 12:43:25;;;;;;;12.07;3.80;;;;;;;;;;5014117;28;20204;-65
2023/07/10 12:46:20;;;;;;;12.18;4.13;;;;;;;;;;5014367;28;20018;-66
2023/07/10 12:48:46;;;;;;;8.00;3.75;;;;;;;;;;5013950;28;20516;-63
2023/07/10 12:51:21;;;;;;;8.25;4.28;;;;;;;;;;5014561;28;20157;-66
2023/07/10 12:53:47;;;;;;;7.57;4.22;;;;;;;;;;5014461;28;20117;-65
2023/07/10 12:56:15;;;;;;;7.90;4.30;;;;;;;;;;5014078;28;20109;-65
2023/07/10 12:58:40;;;;;;;8.30;4.03;;;;;;;;;;5014139;28;20495;-67
2023/07/10 13:01:25;;;;;;;5.75;4.20;;;;;;;;;;5014125;28;20030;-66
2023/07/10 13:04:17;;;;;;;9.95;4.65;;;;;;;;;;5014183;28;20033;-66
2023/07/10 13:06:44;;;;;;;7.10;4.22;;;;;;;;;;5013847;28;20037;-66
2023/07/10 13:09:22;;;;;;;11.57;4.57;;;;;;;;;;5013947;28;20033;-67
2023/07/10 13:11:47;;;;;;;9.48;4.57;;;;;;;;;;5013741;28;20022;-66
2023/07/10 13:14:28;;;;;;;12.25;4.07;;;;;;;;;;5013930;28;20253;-64
2023/07/10 13:16:54;;;;;;;8.57;4.30;;;;;;;;;;5013721;28;20033;-66
2023/07/10 13:19:20;;;;;;;10.70;4.30;;;;;;;;;;5013952;28;20034;-67
2023/07/10 13:21:45;;;;;;;10.25;4.55;;;;;;;;;;5013622;28;20508;-67
2023/07/10 13:24:11;;;;;;;10.63;4.50;;;;;;;;;;5013483;28;20071;-66
2023/07/10 13:26:36;;;;;;;12.38;4.30;;;;;;;;;;5013631;28;20034;-65
2023/07/10 13:29:02;;;;;;;6.50;4.05;;;;;;;;;;5013490;28;20032;-66
2023/07/10 13:31:32;;;;;;;14.65;4.35;;;;;;;;;;5013700;28;20411;-66
2023/07/10 13:33:57;;;;;;;10.40;3.80;;;;;;;;;;5013515;28;20022;-67
2023/07/10 13:36:26;;;;;;;12.02;4.43;;;;;;;;;;5012624;28;20049;-66
2023/07/10 13:38:51;;;;;;;14.13;4.20;;;;;;;;;;5013215;28;20053;-66
2023/07/10 13:41:20;;;;;;;9.05;4.15;;;;;;;;;;5013436;28;20458;-66
2023/07/10 13:43:45;;;;;;;13.48;4.55;;;;;;;;;;5013214;28;20046;-66
2023/07/10 13:46:31;;;;;;;9.60;4.43;;;;;;;;;;5013238;28;20525;-64
2023/07/10 13:48:58;;;;;;;7.75;4.50;;;;;;;;;;5013217;28;20042;-65
2023/07/10 13:51:26;;;;;;;12.38;4.68;;;;;;;;;;5013200;28;20109;-65
2023/07/10 13:53:52;;;;;;;10.55;4.45;;;;;;;;;;5012862;28;20423;-65
2023/07/10 13:56:36;;;;;;;13.82;5.30;;;;;;;;;;5020938;28;20029;-67
2023/07/10 13:59:02;;;;;;;25.25;5.30;;;;;;;;;;5025688;28;20076;-65
2023/07/10 14:01:29;;;;;;;21.27;10.80;;;;;;;;;;5015617;28;20037;-68
2023/07/10 14:03:55;;;;;;;19.92;5.07;;;;;;;;;;5012999;28;20054;-65
2023/07/10 14:06:23;;;;;;;19.27;4.07;;;;;;;;;;5012668;28;20033;-67
2023/07/10 14:08:51;;;;;;;7.55;3.80;;;;;;;;;;5012654;28;20030;-67
2023/07/10 14:11:17;;;;;;;5.82;3.45;;;;;;;;;;5013137;28;20511;-67
2023/07/10 14:13:43;;;;;;;6.70;3.55;;;;;;;;;;5012965;28;20132;-69
2023/07/10 14:16:19;;;;;;;7.90;3.50;;;;;;;;;;5012985;28;20484;-69
2023/07/10 14:18:44;;;;;;;6.22;4.10;;;;;;;;;;5012648;28;20052;-68
2023/07/10 14:21:14;;;;;;;11.73;4.70;;;;;;;;;;5012834;28;20065;-67
2023/07/10 14:23:40;;;;;;;7.57;3.97;;;;;;;;;;5012759;28;20371;-66
2023/07/10 14:26:26;;;;;;;10.45;4.35;;;;;;;;;;5012839;28;20539;-69
2023/07/10 14:28:53;;;;;;;7.68;4.10;;;;;;;;;;5012691;28;20045;-68
2023/07/10 14:31:20;;;;;;;8.60;4.30;;;;;;;;;;5012629;28;20033;-67
2023/07/10 14:33:46;;;;;;;9.70;4.70;;;;;;;;;;4995061;28;20025;-67
2023/07/10 14:36:18;;;;;;;10.93;4.60;;;;;;;;;;5012625;28;20104;-69
2023/07/10 14:38:45;;;;;;;8.68;4.68;;;;;;;;;;4994769;28;20050;-69
2023/07/10 14:41:15;;;;;;;7.10;4.07;;;;;;;;;;5012427;28;20517;-69
2023/07/10 14:43:42;;;;;;;10.95;4.70;;;;;;;;;;5012449;28;20495;-67
2023/07/10 14:46:29;;;;;;;6.60;4.65;;;;;;;;;;5012273;28;20037;-64
2023/07/10 14:48:55;;;;;;;7.65;4.80;;;;;;;;;;5012392;28;20029;-66
2023/07/10 14:51:21;;;;;;;7.10;4.50;;;;;;;;;;5012345;28;20021;-67